Hicksville, OH

6:30 AM EDT on August 31, 2015 (GMT -0400)
Hicksville | | Change Station
CLOSE
Current Station
Personal Weather Station
Location: Hicksville, OH
Elevation: 774 ft
Nearby Weather Stations
Active Advisory: Dense Fog Advisory

Elev 774 ft 41.30 °N, 84.76 °W | Updated 7 minutes ago

Fog
Fog
65.7 °F
Feels Like 65.7 °F
N
0.0
Wind Variable Wind from West

Today
High -- | Low -- °F
--% Chance of Precip.
Yesterday
High -- | Low -- °F
Precip. -- in
7:04 AM 8:13 PM
Waning Gibbous, 96% visible
Pressure 30.04 in
Visibility 0.2 miles
Clouds
Dew Point 65 °F
Humidity 99%
Rainfall 0.00 in
Snow Depth Not available.
UV Not available.
Pollen 8.00 out of 12
Air Quality Not available.
Flu Activity Not available.
METAR KDFI 310953Z AUTO 00000KT 1/4SM FG VV002 19/18 A3006 RMK AO2 SLP173 T01890178 $
Pressure 30.04 in
Visibility 0.2 miles
Clouds
Dew Point 65 °F
Humidity 99%
Rainfall 0.00 in
Snow Depth Not available.
UV Not available.
Pollen 8.00 out of 12
Air Quality Not available.
Flu Activity Not available.
METAR KDFI 310953Z AUTO 00000KT 1/4SM FG VV002 19/18 A3006 RMK AO2 SLP173 T01890178 $

10-Day Weather Forecast

×

Almanac

Astronomy

Aug. 31, 2015 Rise Set
Actual Time
Civil Twilight
Nautical Twilight
Astronomical Twilight
Moon
Length of Visible Light
Length of Day
Tomorrow will be .
, % of the Moon is Illuminated

Today's Extremes

State Highs State Lows

Community

WunderPhotos

Upload Photos

1,851,229 photos uploaded!

WunderBlogs® & News

Nearby

Air Quality

  Air Quality AQ Index Pollutant
Not available.

Snow Depth

Station Depth Elevation

Earthquake Activity

City Distance Mag. Time & Date
Minimum magnitude displayed is 2.5.

Coastal Water Temperatures

Place Temperature

Stations

Nearby Weather Stations

Station Location Temp. Windchill Dew Point Humidity Wind Precip. Elev Updated Type
                   
Dense Fog Advisory
Statement as of 3:13 AM EDT on August 31, 2015

... Dense fog advisory remains in effect until 9 am EDT /8 am CDT/
this morning...

* hazardous weather... areas of dense fog with visibilities
reduced to a 1/4 mile or less will impact travel early this
morning.

* Impacts... travel will be difficult in areas of dense fog.

Precautionary/preparedness actions...

A dense fog advisory means visibilities will frequently be
reduced to less than one quarter mile. If driving... slow down...
use your headlights... and leave plenty of distance ahead of you.